Time;durP1;ratioP1;P1;durP2;ratioP2;P2;SDS_P1;SDS_P2;PMS_P1;PMS_P2;Temp;Humidity;BMP_temperature;BMP_pressure;BME280_temperature;BME280_humidity;BME280_pressure;Samples;Min_cycle;Max_cycle;Signal;HPM_P1;HPM_P2
2021/04/12 00:00:00;;;;;;;5.03;1.10;;;6.50;92.70;;;;;;5082377;28;20197;-74
2021/04/12 00:02:32;;;;;;;4.20;1.02;;;6.50;92.40;;;;;;5083908;28;20639;-74
2021/04/12 00:05:11;;;;;;;2.75;0.90;;;6.50;92.40;;;;;;5080447;28;20228;-74
2021/04/12 00:07:43;;;;;;;4.43;1.08;;;6.50;92.50;;;;;;5080534;28;20650;-74
2021/04/12 00:10:18;;;;;;;4.20;1.02;;;6.50;92.60;;;;;;5082569;28;20560;-74
2021/04/12 00:12:49;;;;;;;7.68;1.35;;;6.50;92.70;;;;;;5089678;28;20194;-75
2021/04/12 00:15:24;;;;;;;3.45;1.30;;;6.50;92.80;;;;;;5087324;28;20202;-75
2021/04/12 00:17:55;;;;;;;3.80;0.98;;;6.60;92.90;;;;;;5081388;28;20194;-74
2021/04/12 00:20:30;;;;;;;4.88;1.17;;;6.60;93.00;;;;;;5078255;28;20208;-74
2021/04/12 00:23:00;;;;;;;3.05;0.80;;;6.60;93.00;;;;;;5077212;28;20196;-74
2021/04/12 00:25:33;;;;;;;4.35;0.63;;;6.60;92.90;;;;;;5091994;28;20285;-74
2021/04/12 00:28:04;;;;;;;3.60;0.90;;;6.60;92.90;;;;;;5080678;28;20194;-74
2021/04/12 00:30:36;;;;;;;1.48;0.70;;;6.60;93.20;;;;;;5076709;28;20206;-74
2021/04/12 00:33:09;;;;;;;4.13;0.68;;;6.60;92.80;;;;;;5071050;28;20258;-73
2021/04/12 00:35:41;;;;;;;1.98;0.70;;;6.60;92.80;;;;;;5087539;28;20427;-73
2021/04/12 00:38:14;;;;;;;5.03;0.63;;;6.60;92.80;;;;;;5083054;28;20218;-74
2021/04/12 00:40:47;;;;;;;4.20;0.70;;;6.70;92.90;;;;;;5085358;28;20210;-74
2021/04/12 00:43:37;;;;;;;4.65;0.85;;;6.60;92.80;;;;;;5070314;28;20292;-73
2021/04/12 00:46:48;;;;;;;4.10;0.88;;;6.60;92.90;;;;;;5073094;28;20209;-73
2021/04/12 00:49:35;;;;;;;4.55;0.77;;;6.60;92.90;;;;;;5049747;28;20210;-73
2021/04/12 00:52:20;;;;;;;6.78;0.80;;;6.50;92.90;;;;;;5086989;28;20195;-74
2021/04/12 00:54:55;;;;;;;4.35;0.52;;;6.60;93.00;;;;;;5078164;28;20214;-73
2021/04/12 00:57:35;;;;;;;2.25;0.63;;;6.50;93.00;;;;;;5076793;28;20240;-73
2021/04/12 01:00:08;;;;;;;4.38;0.82;;;6.50;93.10;;;;;;5071243;28;20194;-73
2021/04/12 01:02:52;;;;;;;1.55;0.50;;;6.50;93.20;;;;;;5085198;28;20593;-73
2021/04/12 01:05:36;;;;;;;3.65;0.80;;;6.50;93.30;;;;;;5087646;28;20280;-73
2021/04/12 01:08:53;;;;;;;3.42;0.73;;;6.50;93.30;;;;;;5070383;28;20201;-73
2021/04/12 01:11:59;;;;;;;7.63;0.95;;;6.50;93.40;;;;;;5000892;28;20212;-73
2021/04/12 01:15:05;;;;;;;3.78;0.70;;;6.50;93.50;;;;;;5071320;28;20763;-73
2021/04/12 01:17:41;;;;;;;11.07;1.00;;;6.40;93.40;;;;;;5074734;28;20233;-73
2021/04/12 01:20:49;;;;;;;8.10;1.10;;;6.40;93.50;;;;;;5070233;28;20415;-73
2021/04/12 01:23:53;;;;;;;3.60;1.00;;;6.70;94.40;;;;;;5063564;28;20980;-73
2021/04/12 01:26:51;;;;;;;4.53;1.10;;;7.00;94.00;;;;;;5066034;28;20442;-73
2021/04/12 01:30:01;;;;;;;2.33;0.90;;;7.20;93.30;;;;;;5068285;28;20450;-73
2021/04/12 01:33:07;;;;;;;4.78;1.15;;;7.40;92.90;;;;;;5074524;28;20413;-73
2021/04/12 01:35:38;;;;;;;7.43;1.17;;;7.50;92.50;;;;;;5072320;28;20422;-73
2021/04/12 01:38:27;;;;;;;5.63;1.00;;;7.60;92.10;;;;;;5074730;28;20402;-73
2021/04/12 01:41:10;;;;;;;6.27;1.40;;;7.60;91.80;;;;;;5082619;28;20404;-73
2021/04/12 01:44:01;;;;;;;5.37;1.30;;;7.70;91.30;;;;;;5104684;28;21238;-73
2021/04/12 01:46:32;;;;;;;3.08;1.10;;;7.70;91.10;;;;;;5102028;28;21517;-73
2021/04/12 01:49:02;;;;;;;5.03;1.20;;;7.80;91.00;;;;;;5096238;28;20944;-73
2021/04/12 01:52:02;;;;;;;6.43;1.25;;;7.80;90.90;;;;;;5102743;28;20761;-73
2021/04/12 01:54:49;;;;;;;6.67;1.00;;;7.80;91.00;;;;;;5076486;28;20735;-74
2021/04/12 01:57:40;;;;;;;4.93;0.87;;;7.80;91.00;;;;;;5081099;28;20431;-72
2021/04/12 02:00:40;;;;;;;7.03;1.42;;;7.80;90.80;;;;;;5091642;28;20402;-73
2021/04/12 02:03:25;;;;;;;4.90;1.00;;;7.80;90.60;;;;;;5101864;28;20403;-73
2021/04/12 02:06:28;;;;;;;6.43;1.23;;;7.80;90.70;;;;;;5072656;28;20436;-73
2021/04/12 02:09:03;;;;;;;3.92;0.90;;;7.90;90.50;;;;;;5065874;28;20413;-74
2021/04/12 02:11:51;;;;;;;3.72;0.90;;;7.90;90.30;;;;;;5091698;28;20497;-73
2021/04/12 02:14:50;;;;;;;5.47;0.93;;;7.90;90.00;;;;;;5095159;28;20411;-73
2021/04/12 02:17:24;;;;;;;6.55;0.90;;;7.90;89.40;;;;;;5108875;28;20888;-74
2021/04/12 02:20:13;;;;;;;4.97;1.00;;;7.90;88.10;;;;;;5096675;28;20430;-74
2021/04/12 02:23:03;;;;;;;2.92;0.90;;;7.90;87.30;;;;;;5101728;28;20431;-74
2021/04/12 02:25:51;;;;;;;6.32;0.93;;;7.90;86.60;;;;;;5089263;28;20955;-73
2021/04/12 02:28:50;;;;;;;9.00;1.00;;;7.90;86.00;;;;;;5089384;28;20433;-74
2021/04/12 02:31:31;;;;;;;5.30;1.10;;;7.90;85.80;;;;;;5098673;28;20420;-73
2021/04/12 02:34:02;;;;;;;4.83;1.00;;;7.90;85.70;;;;;;5096898;28;20420;-73
2021/04/12 02:36:43;;;;;;;5.85;1.05;;;8.00;85.70;;;;;;5084578;28;20922;-74
2021/04/12 02:39:25;;;;;;;3.67;0.90;;;8.00;84.80;;;;;;5093769;28;20413;-73
2021/04/12 02:42:02;;;;;;;3.35;1.00;;;8.00;83.90;;;;;;5076961;28;20417;-74
2021/04/12 02:44:57;;;;;;;6.07;1.05;;;8.00;83.30;;;;;;5076524;28;20414;-74
2021/04/12 02:47:46;;;;;;;4.97;1.00;;;8.00;83.10;;;;;;5095313;28;20810;-73
2021/04/12 02:50:32;;;;;;;5.80;1.10;;;8.00;83.00;;;;;;5111782;28;20472;-73
2021/04/12 02:53:19;;;;;;;6.57;1.17;;;8.00;82.80;;;;;;5108923;28;20492;-73
2021/04/12 02:56:12;;;;;;;4.85;0.90;;;8.00;83.00;;;;;;5104734;28;20817;-74
2021/04/12 02:59:09;;;;;;;4.65;0.98;;;8.00;82.70;;;;;;5093565;28;20417;-74
2021/04/12 03:02:12;;;;;;;9.27;1.15;;;7.90;81.90;;;;;;5091381;28;20415;-74
2021/04/12 03:04:53;;;;;;;7.25;1.10;;;7.90;81.80;;;;;;5092904;28;20885;-74
2021/04/12 03:07:51;;;;;;;7.78;1.27;;;7.90;81.10;;;;;;5081937;28;20418;-74
2021/04/12 03:10:32;;;;;;;7.38;1.20;;;7.90;81.10;;;;;;5091729;28;20953;-73
2021/04/12 03:13:24;;;;;;;8.43;1.20;;;7.90;81.10;;;;;;5094183;28;20785;-73
2021/04/12 03:16:12;;;;;;;6.43;1.20;;;7.80;80.60;;;;;;5091947;28;20414;-73
2021/04/12 03:19:17;;;;;;;6.93;1.00;;;7.80;80.40;;;;;;5092099;28;20433;-73
2021/04/12 03:22:19;;;;;;;5.38;0.90;;;7.80;80.10;;;;;;5076555;28;20425;-73
2021/04/12 03:25:01;;;;;;;5.05;1.13;;;7.80;80.90;;;;;;5102086;28;20417;-73
2021/04/12 03:27:50;;;;;;;6.43;1.38;;;7.80;79.60;;;;;;5092555;28;21565;-73
2021/04/12 03:30:29;;;;;;;7.43;1.00;;;7.80;79.60;;;;;;5095874;28;20491;-74
2021/04/12 03:33:06;;;;;;;6.43;1.02;;;7.80;79.50;;;;;;5094404;28;20822;-73
2021/04/12 03:35:49;;;;;;;6.28;0.93;;;7.80;79.40;;;;;;5072828;28;20978;-74
2021/04/12 03:38:36;;;;;;;5.47;0.90;;;7.80;79.40;;;;;;5098403;28;20424;-74
2021/04/12 03:41:51;;;;;;;6.93;1.25;;;7.70;79.70;;;;;;5081656;28;20420;-74
2021/04/12 03:44:38;;;;;;;12.82;1.77;;;7.70;79.90;;;;;;5075765;28;20441;-74
2021/04/12 03:47:38;;;;;;;4.70;1.47;;;7.70;80.20;;;;;;5064586;28;20542;-73
2021/04/12 03:51:06;;;;;;;5.28;1.20;;;7.70;80.00;;;;;;5054180;28;20418;-73
2021/04/12 03:54:08;;;;;;;8.00;1.40;;;7.70;79.70;;;;;;4981144;28;20432;-74
2021/04/12 03:57:08;;;;;;;5.63;1.10;;;7.60;80.00;;;;;;4995851;28;20806;-74
2021/04/12 03:59:43;;;;;;;9.52;1.52;;;7.70;80.20;;;;;;5083844;28;20495;-74
2021/04/12 04:02:32;;;;;;;7.95;0.90;;;7.60;81.30;;;;;;5099422;28;20460;-74
2021/04/12 04:05:18;;;;;;;8.40;1.00;;;7.60;83.20;;;;;;5108493;28;20400;-73
2021/04/12 04:08:25;;;;;;;6.57;1.10;;;7.40;85.00;;;;;;5081270;28;20468;-73
2021/04/12 04:11:18;;;;;;;3.63;1.10;;;7.10;88.70;;;;;;5087395;28;20872;-72
2021/04/12 04:14:06;;;;;;;5.43;1.00;;;6.80;90.80;;;;;;5106496;28;20401;-72
2021/04/12 04:16:43;;;;;;;5.45;1.35;;;6.60;92.00;;;;;;5071720;28;20496;-73
2021/04/12 04:19:23;;;;;;;6.07;1.30;;;6.50;93.10;;;;;;5090448;28;21207;-73
2021/04/12 04:22:11;;;;;;;3.30;1.00;;;6.50;93.70;;;;;;5095521;28;20496;-72
2021/04/12 04:25:05;;;;;;;5.30;1.20;;;6.50;94.00;;;;;;5095936;28;20414;-73
2021/04/12 04:28:06;;;;;;;4.70;1.00;;;6.40;94.60;;;;;;5094666;28;20464;-73
2021/04/12 04:31:01;;;;;;;5.47;1.10;;;6.40;94.70;;;;;;5089004;28;20425;-73
2021/04/12 04:33:54;;;;;;;6.03;1.38;;;6.40;94.80;;;;;;5086095;28;20419;-74
2021/04/12 04:36:38;;;;;;;4.32;1.27;;;6.40;94.90;;;;;;5075098;28;20418;-73
2021/04/12 04:39:44;;;;;;;4.53;1.52;;;6.40;95.10;;;;;;5088607;28;20417;-73
2021/04/12 04:42:28;;;;;;;5.65;1.88;;;6.30;95.40;;;;;;5082427;28;20435;-74
2021/04/12 04:45:06;;;;;;;5.90;1.70;;;6.40;95.70;;;;;;5071111;28;20422;-73
2021/04/12 04:47:56;;;;;;;6.22;1.20;;;6.30;95.60;;;;;;5081868;28;20425;-72
2021/04/12 04:50:57;;;;;;;5.78;1.10;;;6.30;95.40;;;;;;5074038;28;20510;-72
2021/04/12 04:54:01;;;;;;;4.45;1.10;;;6.30;95.60;;;;;;5046164;28;20528;-74
2021/04/12 04:56:35;;;;;;;6.68;1.05;;;6.20;95.40;;;;;;5084379;28;20427;-73
2021/04/12 04:59:22;;;;;;;8.23;1.10;;;6.20;95.40;;;;;;5079988;28;20502;-74
2021/04/12 05:02:05;;;;;;;4.72;1.00;;;6.10;95.50;;;;;;5077696;28;20415;-72
2021/04/12 05:05:08;;;;;;;5.45;1.20;;;6.10;95.80;;;;;;5083515;28;20416;-72
2021/04/12 05:08:02;;;;;;;5.55;1.23;;;6.20;96.00;;;;;;5084658;28;20422;-74
2021/04/12 05:10:50;;;;;;;11.77;1.60;;;6.20;96.60;;;;;;5081994;28;20965;-73
2021/04/12 05:13:32;;;;;;;6.97;1.40;;;6.20;96.30;;;;;;5071981;28;20419;-74
2021/04/12 05:16:34;;;;;;;6.03;1.23;;;6.20;96.00;;;;;;5068135;28;20503;-74
2021/04/12 05:19:30;;;;;;;7.45;1.75;;;6.30;95.70;;;;;;5079146;28;20898;-75
2021/04/12 05:22:14;;;;;;;6.15;1.35;;;6.30;95.60;;;;;;5068638;28;21191;-75
2021/04/12 05:24:55;;;;;;;7.65;1.40;;;6.30;95.40;;;;;;5066629;28;20859;-75
2021/04/12 05:27:46;;;;;;;7.07;1.50;;;6.40;95.50;;;;;;5073792;28;20786;-72
2021/04/12 05:30:52;;;;;;;6.32;1.40;;;6.30;95.50;;;;;;5065975;28;20442;-75
2021/04/12 05:33:33;;;;;;;8.55;1.80;;;6.40;96.20;;;;;;5080155;28;20413;-73
2021/04/12 05:36:16;;;;;;;6.83;1.63;;;6.40;95.60;;;;;;5084161;28;20431;-75
2021/04/12 05:39:18;;;;;;;7.57;1.50;;;6.40;95.80;;;;;;5079653;28;20415;-74
2021/04/12 05:42:10;;;;;;;5.88;1.50;;;6.50;95.70;;;;;;5058724;28;20428;-75
2021/04/12 05:44:42;;;;;;;7.40;1.90;;;6.60;95.70;;;;;;5075457;28;20409;-73
2021/04/12 05:47:20;;;;;;;7.30;2.00;;;6.60;95.90;;;;;;5072540;28;20434;-75
2021/04/12 05:50:19;;;;;;;13.23;1.90;;;6.60;95.40;;;;;;5074740;28;20409;-75
2021/04/12 05:53:12;;;;;;;9.70;1.52;;;6.60;95.70;;;;;;5079326;28;20426;-72
2021/04/12 05:56:09;;;;;;;7.90;2.47;;;6.40;94.90;;;;;;5069722;28;20416;-71
2021/04/12 05:58:58;;;;;;;3.72;1.30;;;6.10;95.40;;;;;;5070807;28;20426;-73
2021/04/12 06:01:50;;;;;;;4.90;1.40;;;5.80;96.00;;;;;;5081972;28;20845;-73
2021/04/12 06:04:27;;;;;;;3.10;1.48;;;5.60;96.80;;;;;;5080674;28;20411;-73
2021/04/12 06:07:21;;;;;;;4.68;1.33;;;5.50;97.70;;;;;;5080907;28;20224;-74
2021/04/12 06:10:34;;;;;;;4.45;1.35;;;5.30;97.70;;;;;;5066563;28;20202;-73
2021/04/12 06:13:40;;;;;;;4.68;1.40;;;5.10;97.90;;;;;;5070965;28;21365;-73
2021/04/12 06:16:28;;;;;;;6.97;1.80;;;5.00;98.10;;;;;;5078140;28;20498;-74
2021/04/12 06:19:42;;;;;;;6.28;1.85;;;5.10;99.70;;;;;;5068406;28;20423;-74
2021/04/12 06:22:19;;;;;;;4.72;1.80;;;5.20;99.90;;;;;;4982667;28;20467;-75
2021/04/12 06:25:10;;;;;;;5.25;1.75;;;5.30;99.90;;;;;;4969506;28;20421;-74
2021/04/12 06:28:21;;;;;;;7.55;2.00;;;5.30;99.90;;;;;;5053603;28;20443;-73
2021/04/12 06:31:22;;;;;;;7.90;2.40;;;5.40;99.90;;;;;;5070483;28;20768;-72
2021/04/12 06:34:00;;;;;;;7.38;2.03;;;5.40;99.90;;;;;;5071231;28;20429;-76
2021/04/12 06:36:48;;;;;;;8.07;2.10;;;5.50;99.90;;;;;;5076674;28;20396;-75
2021/04/12 06:39:34;;;;;;;5.80;1.88;;;5.60;99.90;;;;;;5068255;28;20411;-74
2021/04/12 06:42:49;;;;;;;10.02;3.00;;;5.60;99.90;;;;;;5070745;28;20919;-74
2021/04/12 06:45:58;;;;;;;9.60;2.33;;;5.80;99.90;;;;;;5071840;28;20766;-74
2021/04/12 06:49:02;;;;;;;5.53;1.90;;;5.80;99.90;;;;;;5074891;28;20431;-74
2021/04/12 06:52:17;;;;;;;13.25;2.35;;;5.90;99.90;;;;;;5065609;28;20426;-75
2021/04/12 06:54:54;;;;;;;6.90;2.10;;;5.90;99.90;;;;;;5001198;28;20426;-74
2021/04/12 06:58:09;;;;;;;5.03;2.10;;;6.00;99.90;;;;;;5065806;28;20411;-74
2021/04/12 07:01:05;;;;;;;13.50;2.50;;;6.00;99.90;;;;;;5070370;28;20420;-75
2021/04/12 07:04:14;;;;;;;6.35;2.00;;;6.00;99.90;;;;;;5077461;28;20431;-74
2021/04/12 07:07:09;;;;;;;5.95;2.00;;;6.10;99.90;;;;;;5077007;28;20450;-74
2021/04/12 07:09:58;;;;;;;8.57;3.03;;;6.00;99.90;;;;;;5076906;28;20862;-74
2021/04/12 07:12:58;;;;;;;7.07;2.05;;;6.00;99.90;;;;;;5069219;28;21076;-73
2021/04/12 07:16:14;;;;;;;6.80;1.95;;;6.10;99.90;;;;;;5074183;28;20456;-75
2021/04/12 07:19:25;;;;;;;6.18;1.90;;;6.10;99.90;;;;;;5007597;28;20491;-75
2021/04/12 07:22:18;;;;;;;7.88;2.58;;;6.10;99.90;;;;;;5014758;28;20420;-74
2021/04/12 07:25:27;;;;;;;5.78;2.00;;;6.10;99.90;;;;;;5073690;28;20530;-74
2021/04/12 07:28:32;;;;;;;4.15;1.90;;;6.00;99.90;;;;;;5082752;28;20477;-74
2021/04/12 07:31:36;;;;;;;5.47;1.90;;;6.00;99.90;;;;;;5073624;28;20780;-74
2021/04/12 07:34:41;;;;;;;2.88;1.70;;;6.00;99.90;;;;;;5080494;28;20914;-73
2021/04/12 07:37:35;;;;;;;5.10;2.08;;;6.00;99.90;;;;;;5071652;28;20472;-74
2021/04/12 07:40:35;;;;;;;5.05;1.80;;;6.00;99.90;;;;;;5072423;28;20439;-74
2021/04/12 07:43:50;;;;;;;3.38;1.67;;;6.00;99.90;;;;;;5032015;28;20963;-73
2021/04/12 07:46:58;;;;;;;6.88;2.00;;;6.10;99.90;;;;;;5054354;28;20510;-73
2021/04/12 07:49:46;;;;;;;4.15;1.98;;;6.10;99.90;;;;;;5059931;28;20431;-76
2021/04/12 07:52:39;;;;;;;5.38;1.80;;;6.20;99.90;;;;;;5055354;28;20434;-74
2021/04/12 07:55:44;;;;;;;7.17;1.90;;;6.30;99.90;;;;;;5049329;28;20417;-74
2021/04/12 07:58:43;;;;;;;5.97;1.92;;;6.40;99.90;;;;;;5050580;28;20414;-75
2021/04/12 08:01:41;;;;;;;7.47;2.37;;;6.40;99.90;;;;;;5048730;28;20847;-73
2021/04/12 08:04:52;;;;;;;9.47;2.93;;;6.50;99.90;;;;;;5057554;28;20422;-74
2021/04/12 08:07:58;;;;;;;10.20;2.10;;;6.60;99.90;;;;;;5028518;28;20751;-73
2021/04/12 08:11:16;;;;;;;6.97;1.88;;;6.70;99.30;;;;;;5051004;28;20429;-76
2021/04/12 08:14:22;;;;;;;7.70;2.00;;;6.80;98.80;;;;;;5053321;28;20464;-75
2021/04/12 08:17:23;;;;;;;8.47;1.90;;;6.80;98.90;;;;;;5054405;28;20971;-72
2021/04/12 08:20:23;;;;;;;8.77;1.60;;;6.80;98.80;;;;;;5037456;28;21246;-74
2021/04/12 08:23:21;;;;;;;5.43;1.50;;;6.90;97.40;;;;;;5050239;28;20414;-74
2021/04/12 08:26:42;;;;;;;7.78;1.98;;;6.90;97.00;;;;;;5019093;28;20775;-74
2021/04/12 08:29:50;;;;;;;5.00;1.63;;;7.00;96.70;;;;;;5060556;28;20413;-74
2021/04/12 08:33:01;;;;;;;8.50;1.67;;;7.10;95.70;;;;;;5048464;28;20443;-74
2021/04/12 08:36:06;;;;;;;10.07;1.60;;;7.20;94.80;;;;;;5052722;28;20419;-74
2021/04/12 08:39:07;;;;;;;7.13;1.50;;;7.30;94.20;;;;;;5055808;28;20425;-75
2021/04/12 08:41:59;;;;;;;9.40;1.92;;;7.30;94.00;;;;;;5059397;28;20506;-75
2021/04/12 08:44:48;;;;;;;6.38;1.23;;;7.30;94.10;;;;;;5086787;28;20482;-74
2021/04/12 08:47:42;;;;;;;5.40;1.30;;;7.30;93.70;;;;;;5086219;28;20474;-74
2021/04/12 08:50:45;;;;;;;7.65;1.70;;;7.30;93.00;;;;;;5098038;28;20430;-74
2021/04/12 08:53:37;;;;;;;7.15;1.52;;;7.30;92.80;;;;;;5098104;28;20854;-74
2021/04/12 08:56:30;;;;;;;7.87;1.60;;;7.30;92.80;;;;;;5104838;28;20443;-75
2021/04/12 08:59:28;;;;;;;6.88;1.30;;;7.30;92.00;;;;;;5106737;28;20419;-75
2021/04/12 09:02:27;;;;;;;6.13;1.50;;;7.30;91.10;;;;;;5100801;28;20428;-74
2021/04/12 09:05:30;;;;;;;4.25;1.50;;;7.30;90.50;;;;;;5086775;28;20442;-74
2021/04/12 09:08:35;;;;;;;5.95;1.63;;;7.40;90.20;;;;;;5090297;28;20430;-73
2021/04/12 09:11:16;;;;;;;6.28;2.08;;;7.60;90.20;;;;;;5092005;28;20406;-75
2021/04/12 09:14:20;;;;;;;6.70;2.30;;;7.70;89.60;;;;;;5095171;28;20409;-75
2021/04/12 09:17:09;;;;;;;5.63;2.13;;;7.70;88.80;;;;;;5051009;28;20782;-74
2021/04/12 09:20:08;;;;;;;7.35;2.30;;;7.70;89.20;;;;;;5094502;28;20432;-74
2021/04/12 09:23:18;;;;;;;9.35;2.78;;;7.60;90.30;;;;;;5091756;28;20449;-73
2021/04/12 09:26:33;;;;;;;6.45;2.25;;;7.60;92.00;;;;;;5083734;28;20525;-75
2021/04/12 09:29:30;;;;;;;7.43;2.40;;;7.60;92.50;;;;;;5079177;28;20432;-75
2021/04/12 09:32:23;;;;;;;8.13;2.50;;;7.50;92.30;;;;;;5043308;28;20766;-76
2021/04/12 09:35:42;;;;;;;8.40;3.00;;;7.50;93.50;;;;;;5098901;28;20416;-75
2021/04/12 09:38:39;;;;;;;8.60;2.60;;;7.60;94.30;;;;;;5085366;28;20425;-75
2021/04/12 09:41:31;;;;;;;8.68;3.17;;;7.80;92.50;;;;;;5071800;28;20422;-75
2021/04/12 09:44:37;;;;;;;6.47;2.08;;;7.90;90.70;;;;;;5070601;28;20506;-75
2021/04/12 09:47:49;;;;;;;7.60;2.35;;;7.80;90.10;;;;;;5091661;28;20429;-75
2021/04/12 09:50:51;;;;;;;8.43;2.40;;;7.80;89.50;;;;;;5091565;28;20784;-76
2021/04/12 09:53:50;;;;;;;7.10;2.20;;;7.80;88.00;;;;;;5072362;28;20426;-77
2021/04/12 09:56:51;;;;;;;5.13;2.25;;;7.80;89.00;;;;;;5071659;28;20423;-75
2021/04/12 09:59:38;;;;;;;8.10;2.00;;;7.90;90.10;;;;;;5081996;28;20441;-75
2021/04/12 10:02:44;;;;;;;6.20;2.10;;;7.90;90.00;;;;;;5093046;28;20423;-75
2021/04/12 10:05:50;;;;;;;6.25;2.00;;;8.00;88.90;;;;;;5073778;28;20817;-77
2021/04/12 10:08:26;;;;;;;7.18;2.60;;;8.10;88.90;;;;;;5091954;28;20434;-78
2021/04/12 10:11:01;;;;;;;5.63;2.00;;;8.10;86.80;;;;;;5096333;28;20487;-76
2021/04/12 10:13:38;;;;;;;7.78;2.65;;;8.20;85.00;;;;;;5092866;28;20420;-75
2021/04/12 10:16:26;;;;;;;4.22;2.08;;;8.20;84.30;;;;;;5075535;28;20418;-75
2021/04/12 10:19:07;;;;;;;6.80;2.22;;;8.30;85.10;;;;;;5087745;28;20425;-75
2021/04/12 10:21:41;;;;;;;7.53;2.30;;;8.30;86.30;;;;;;5091687;28;20409;-74
2021/04/12 10:24:15;;;;;;;10.57;2.40;;;8.50;87.40;;;;;;5092843;28;20421;-75
2021/04/12 10:26:46;;;;;;;8.23;2.42;;;8.50;87.60;;;;;;5090368;28;20505;-73
2021/04/12 10:29:17;;;;;;;11.90;4.90;;;8.70;86.90;;;;;;5073373;28;20428;-73
2021/04/12 10:31:53;;;;;;;8.32;2.58;;;8.70;87.20;;;;;;5093133;28;20782;-72
2021/04/12 10:34:27;;;;;;;8.18;2.40;;;8.80;87.20;;;;;;5093640;28;20406;-76
2021/04/12 10:37:03;;;;;;;6.07;1.90;;;8.90;86.30;;;;;;5092059;28;20424;-72
2021/04/12 10:39:39;;;;;;;6.00;1.85;;;8.90;82.10;;;;;;5086945;28;20420;-74
2021/04/12 10:42:21;;;;;;;6.70;1.95;;;8.90;81.20;;;;;;5086577;28;20428;-73
2021/04/12 10:44:56;;;;;;;6.80;2.20;;;8.90;80.20;;;;;;5093796;28;20427;-73
2021/04/12 10:47:29;;;;;;;5.80;1.90;;;8.80;82.30;;;;;;5074949;28;20902;-73
2021/04/12 10:50:08;;;;;;;6.13;2.03;;;8.90;84.20;;;;;;5099346;28;20435;-73
2021/04/12 10:53:04;;;;;;;7.10;2.45;;;8.90;84.30;;;;;;5093184;28;20537;-74
2021/04/12 10:55:35;;;;;;;10.57;2.30;;;8.90;85.00;;;;;;5096141;28;20433;-74
2021/04/12 10:58:16;;;;;;;6.28;2.00;;;8.90;84.20;;;;;;5097785;28;20415;-73
2021/04/12 11:00:54;;;;;;;7.78;2.20;;;8.90;85.10;;;;;;5089189;28;20774;-73
2021/04/12 11:03:39;;;;;;;6.25;2.30;;;8.90;85.00;;;;;;5090788;28;20427;-73
2021/04/12 11:06:47;;;;;;;6.95;2.55;;;8.90;83.10;;;;;;5092758;28;20495;-74
2021/04/12 11:09:40;;;;;;;7.30;2.20;;;9.00;82.40;;;;;;5073543;28;20980;-72
2021/04/12 11:12:15;;;;;;;4.93;1.90;;;9.00;81.80;;;;;;5089427;28;20898;-74
2021/04/12 11:14:49;;;;;;;7.18;2.17;;;9.10;80.80;;;;;;5073833;28;20487;-73
2021/04/12 11:17:33;;;;;;;6.88;2.20;;;9.10;80.00;;;;;;5075766;28;20871;-73
2021/04/12 11:20:08;;;;;;;6.85;2.15;;;9.10;80.40;;;;;;5078933;28;20981;-75
2021/04/12 11:22:46;;;;;;;4.53;1.83;;;9.10;80.00;;;;;;5084171;28;20421;-74
2021/04/12 11:25:20;;;;;;;4.53;1.80;;;9.10;78.10;;;;;;5091636;28;20421;-74
2021/04/12 11:28:08;;;;;;;6.68;2.03;;;9.10;77.10;;;;;;5100898;28;20422;-74
2021/04/12 11:30:48;;;;;;;8.07;2.05;;;9.10;77.60;;;;;;5093603;28;20437;-74
2021/04/12 11:33:35;;;;;;;6.85;1.90;;;9.20;78.00;;;;;;5091397;28;20424;-75
2021/04/12 11:36:10;;;;;;;5.18;2.22;;;9.30;78.80;;;;;;5089104;28;20516;-75
2021/04/12 11:38:42;;;;;;;4.90;1.90;;;9.40;78.40;;;;;;5094300;28;20432;-74
2021/04/12 11:41:15;;;;;;;6.38;2.30;;;9.50;77.80;;;;;;5096859;28;20450;-74
2021/04/12 11:43:47;;;;;;;6.75;2.20;;;9.60;75.70;;;;;;5094004;28;20427;-76
2021/04/12 11:46:24;;;;;;;6.03;2.20;;;9.70;74.80;;;;;;5094232;28;20488;-72
2021/04/12 11:48:54;;;;;;;6.43;1.90;;;9.60;76.80;;;;;;5102836;28;20889;-74
2021/04/12 11:51:34;;;;;;;6.50;2.00;;;9.70;77.20;;;;;;5095411;28;20828;-73
2021/04/12 11:54:04;;;;;;;6.15;2.00;;;9.70;76.10;;;;;;5079205;28;20420;-74
2021/04/12 11:56:44;;;;;;;9.07;2.40;;;9.70;76.70;;;;;;5089193;28;20478;-73
2021/04/12 11:59:20;;;;;;;7.80;2.40;;;9.80;76.40;;;;;;5091974;28;20435;-75
2021/04/12 12:01:51;;;;;;;5.43;2.42;;;9.80;75.00;;;;;;5093043;28;20448;-74
2021/04/12 12:04:30;;;;;;;6.97;2.40;;;9.80;76.00;;;;;;5077383;28;20789;-75
2021/04/12 12:07:07;;;;;;;6.85;2.20;;;9.80;75.70;;;;;;5095928;28;20433;-74
2021/04/12 12:09:43;;;;;;;12.68;3.38;;;9.90;75.90;;;;;;5072520;28;20432;-74
2021/04/12 12:12:25;;;;;;;8.07;2.20;;;9.90;76.50;;;;;;5090567;28;20428;-73
2021/04/12 12:15:01;;;;;;;8.23;2.60;;;9.80;73.80;;;;;;5095423;28;20408;-76
2021/04/12 12:17:35;;;;;;;7.70;2.30;;;9.80;74.00;;;;;;5091470;28;20406;-74
2021/04/12 12:20:10;;;;;;;4.72;2.00;;;9.70;76.40;;;;;;5089328;28;20448;-73
2021/04/12 12:22:50;;;;;;;4.68;2.10;;;9.80;74.80;;;;;;5089954;28;20473;-74
2021/04/12 12:25:32;;;;;;;9.33;2.23;;;9.80;72.90;;;;;;5089713;28;20477;-75
2021/04/12 12:28:06;;;;;;;4.97;1.70;;;9.90;72.90;;;;;;5091860;28;20430;-74
2021/04/12 12:30:38;;;;;;;6.75;2.30;;;10.00;72.90;;;;;;5090081;28;20414;-74
2021/04/12 12:33:11;;;;;;;7.50;1.93;;;10.10;74.20;;;;;;5096017;28;20409;-73
2021/04/12 12:35:48;;;;;;;5.72;2.00;;;10.30;71.70;;;;;;5096675;28;21230;-75
2021/04/12 12:38:38;;;;;;;6.45;2.00;;;10.40;71.40;;;;;;5100802;28;20499;-75
2021/04/12 12:41:14;;;;;;;8.63;2.20;;;10.50;69.60;;;;;;5091472;28;20537;-76
2021/04/12 12:43:41;;;;;;;6.20;2.08;;;10.50;70.90;;;;;;5090402;28;20498;-75
2021/04/12 12:46:11;;;;;;;7.05;2.20;;;10.60;70.80;;;;;;5089897;28;20414;-75
2021/04/12 12:48:50;;;;;;;6.70;2.20;;;10.60;71.60;;;;;;5080848;28;20420;-75
2021/04/12 12:51:24;;;;;;;6.40;2.03;;;10.70;72.60;;;;;;5091592;28;21286;-75
2021/04/12 12:53:57;;;;;;;5.83;2.00;;;10.80;69.10;;;;;;5073956;28;20424;-76
2021/04/12 12:56:27;;;;;;;5.45;1.77;;;10.90;67.90;;;;;;5092241;28;20414;-75
2021/04/12 12:59:00;;;;;;;9.15;1.80;;;10.90;65.90;;;;;;5071173;28;20421;-75
2021/04/12 13:01:29;;;;;;;11.13;2.03;;;11.10;66.70;;;;;;5094841;28;20508;-75
2021/04/12 13:04:08;;;;;;;5.20;1.85;;;11.30;66.50;;;;;;5100572;28;20969;-75
2021/04/12 13:06:35;;;;;;;5.63;1.90;;;11.40;66.40;;;;;;5073161;28;20499;-76
2021/04/12 13:09:04;;;;;;;8.18;2.00;;;11.50;66.30;;;;;;5090297;28;20410;-76
2021/04/12 13:11:38;;;;;;;3.50;1.80;;;11.70;64.60;;;;;;5075892;28;20803;-75
2021/04/12 13:14:14;;;;;;;6.85;1.90;;;11.80;63.20;;;;;;5076414;28;21078;-75
2021/04/12 13:16:41;;;;;;;7.57;1.80;;;12.00;62.30;;;;;;5088481;28;20507;-76
2021/04/12 13:19:08;;;;;;;5.45;2.20;;;12.20;60.60;;;;;;5096037;28;21233;-76
2021/04/12 13:21:38;;;;;;;8.68;1.70;;;12.30;60.70;;;;;;5097727;28;20422;-75
2021/04/12 13:24:16;;;;;;;5.90;1.63;;;12.30;66.30;;;;;;5088574;28;20421;-76
2021/04/12 13:26:52;;;;;;;6.53;1.60;;;12.40;68.80;;;;;;5089273;28;20524;-76
2021/04/12 13:29:23;;;;;;;9.70;1.90;;;12.40;69.10;;;;;;5067154;28;20439;-77
2021/04/12 13:31:52;;;;;;;6.05;1.98;;;12.40;70.30;;;;;;5093984;28;20449;-76
2021/04/12 13:34:22;;;;;;;4.77;1.40;;;12.30;68.40;;;;;;5089745;28;20433;-76
2021/04/12 13:36:52;;;;;;;3.78;1.20;;;12.40;70.20;;;;;;5088497;28;20613;-75
2021/04/12 13:39:35;;;;;;;4.93;1.60;;;12.20;72.30;;;;;;5071560;28;20210;-74
2021/04/12 13:42:03;;;;;;;4.63;2.47;;;12.00;72.80;;;;;;5086261;28;20597;-74
2021/04/12 13:44:30;;;;;;;4.22;1.88;;;11.80;73.50;;;;;;5069149;28;20307;-74
2021/04/12 13:47:04;;;;;;;7.45;2.17;;;11.70;74.70;;;;;;5070363;28;20210;-78
2021/04/12 13:49:41;;;;;;;7.10;2.70;;;11.80;75.80;;;;;;5082939;28;20206;-73
2021/04/12 13:52:13;;;;;;;7.32;2.50;;;11.80;76.40;;;;;;5070784;28;20213;-77
2021/04/12 13:54:44;;;;;;;8.43;2.80;;;12.00;77.20;;;;;;5093928;28;20670;-74
2021/04/12 13:57:20;;;;;;;4.45;1.90;;;12.20;77.80;;;;;;5071245;28;20253;-74
2021/04/12 13:59:54;;;;;;;1.88;1.00;;;12.40;77.60;;;;;;5102094;28;20659;-74
2021/04/12 14:02:27;;;;;;;5.53;1.40;;;12.60;76.20;;;;;;5094109;28;20209;-75
2021/04/12 14:04:58;;;;;;;2.97;1.58;;;12.60;74.80;;;;;;5095271;28;20687;-75
2021/04/12 14:07:46;;;;;;;3.88;1.30;;;12.60;74.50;;;;;;5096819;28;20295;-75
2021/04/12 14:10:20;;;;;;;4.82;1.77;;;12.40;75.40;;;;;;5073234;28;20201;-75
2021/04/12 14:13:02;;;;;;;4.35;1.90;;;12.20;76.10;;;;;;5074436;28;20205;-76
2021/04/12 14:15:48;;;;;;;4.38;2.20;;;11.80;76.40;;;;;;5075721;28;20254;-75
2021/04/12 14:18:28;;;;;;;5.43;3.13;;;11.50;76.30;;;;;;5075355;28;20199;-77
2021/04/12 14:21:15;;;;;;;6.32;3.92;;;11.00;74.00;;;;;;5091571;28;20195;-76
2021/04/12 14:23:46;;;;;;;10.70;4.97;;;10.40;75.50;;;;;;5099469;28;20658;-74
2021/04/12 14:26:20;;;;;;;9.40;4.75;;;9.90;78.40;;;;;;5097747;28;20288;-75
2021/04/12 14:28:50;;;;;;;9.38;4.85;;;9.40;80.70;;;;;;5103389;28;20901;-73
2021/04/12 14:31:24;;;;;;;10.13;4.95;;;9.00;82.70;;;;;;5076604;28;20372;-76
2021/04/12 14:33:54;;;;;;;11.38;4.65;;;8.70;84.20;;;;;;5092300;28;20658;-75
2021/04/12 14:36:26;;;;;;;9.07;4.30;;;8.60;87.20;;;;;;5101084;28;20197;-75
2021/04/12 14:39:09;;;;;;;10.32;4.10;;;8.60;90.20;;;;;;5100836;28;20318;-75